Kiana, AK

06:39 AM AKDT die 27o March, anno 2017 (GMT -0800)
Baker Memorial | | Change Station

Elev 167 ft 66.98 °N, 160.44 °W | Updated 38 minutes ago

Serena
Serena
-10 °F
Feels Like -25 °F
N
7
Ventus Variabilis Ventus from Aquilo

Hodie
High -- | Low -- °F
--% Chance of Precip.
Yesterday
High -- | Low -- °F
Precip. -- in
Pressio 30.11 in
Visibilitas 10.0 milia passuum
Clouds Serena
Frigus Venti -25 °F
Frigus in quo Ros apparet -15 °F
Umor 78%
Rainfall 0.00 in
Snow Depth Not available.
8:11 AM 9:24 PM
Waning Crescent, 0% visible
METAR PAIK 271401Z AUTO 35006KT 10SM CLR M23/M26 A2997 RMK AO2 SLP195 T12331261 FZRANO
Pressio 30.11 in
Visibilitas 10.0 milia passuum
Clouds Serena
Frigus Venti -25 °F
Frigus in quo Ros apparet -15 °F
Umor 78%
Rainfall 0.00 in
Snow Depth Not available.
8:11 AM 9:24 PM
Waning Crescent, 0% visible
METAR PAIK 271401Z AUTO 35006KT 10SM CLR M23/M26 A2997 RMK AO2 SLP195 T12331261 FZRANO

Get Severe Weather Alerts

Thanks for signing up!

Be on the lookout for a verification email in your inbox.

You'll start receiving the daily forecast at 8 AM.

×

10-Day Weather Forecast

Almanac

Astronomy

Mar. 27, 2017 Rise Set
Actual Time
Civil Twilight
Nautical Twilight
Astronomical Twilight
Moon
Length Of Visible Light
Length of Day
Tomorrow will be .
, % of the Moon is Illuminated

Today's Extremes

State Highs State Lows

Community

WunderPhotos

Upload Photos

1,962,540 photos uploaded!

WunderBlog® & News

Nearby

Air Quality

  Air Quality AQ Index Pollutant
Not available.

Snow Depth

Station Depth Elevation

Earthquake Activity

City Distance Mag. Time & Date
Minimum magnitude displayed is 2.5.

Earthquake Activity

City Distance Mag. Time & Date
Minimum magnitude displayed is 2.5.

Coastal Water Temperatures

Locus Calor

Stations

Nearby Weather Stations

Station Location Temp Frigus Venti Frigus in quo Ros apparet Umor Ventus Precip. Elev Renovata Type
                   

Watches & Warnings

There are currently no watches in effect.